Time;durP1;ratioP1;P1;durP2;ratioP2;P2;SDS_P1;SDS_P2;PMS_P1;PMS_P2;Temp;Humidity;BMP_temperature;BMP_pressure;BME280_temperature;BME280_humidity;BME280_pressure;Samples;Min_cycle;Max_cycle;Signal;HPM_P1;HPM_P2
2023/03/23 00:00:29;;;;;;;;;;;;;;;4.76;89.98;95184.28;5055374;28;1037;-60
2023/03/23 00:02:56;;;;;;;;;;;;;;;4.86;88.99;95186.06;5055458;28;1104;-60
2023/03/23 00:05:22;;;;;;;;;;;;;;;4.92;88.99;95184.72;5055576;28;1021;-60
2023/03/23 00:07:52;;;;;;;;;;;;;;;4.83;87.94;95182.81;5055569;28;1016;-60
2023/03/23 00:10:18;;;;;;;;;;;;;;;4.86;88.20;95190.53;5055258;28;1009;-60
2023/03/23 00:12:44;;;;;;;;;;;;;;;4.87;87.58;95179.78;5055568;28;969;-59
2023/03/23 00:15:12;;;;;;;;;;;;;;;4.79;87.21;95174.28;5055399;28;1910;-60
2023/03/23 00:17:39;;;;;;;;;;;;;;;4.76;88.32;95177.19;5055277;28;1036;-60
2023/03/23 00:20:05;;;;;;;;;;;;;;;4.83;88.79;95182.81;5055183;28;993;-60
2023/03/23 00:22:37;;;;;;;;;;;;;;;4.84;88.39;95180.06;5055244;28;966;-60
2023/03/23 00:25:08;;;;;;;;;;;;;;;4.53;87.56;95181.69;5055124;28;1375;-60
2023/03/23 00:27:34;;;;;;;;;;;;;;;4.53;87.77;95176.38;5054957;28;1081;-60
2023/03/23 00:30:00;;;;;;;;;;;;;;;4.57;88.15;95177.84;5055039;28;1039;-60
2023/03/23 00:32:29;;;;;;;;;;;;;;;4.65;88.76;95169.28;5053795;28;1052;-60
2023/03/23 00:34:58;;;;;;;;;;;;;;;4.80;88.50;95172.47;5054770;28;1911;-60
2023/03/23 00:37:25;;;;;;;;;;;;;;;4.77;88.24;95172.72;5054862;28;1013;-59
2023/03/23 00:39:51;;;;;;;;;;;;;;;4.72;87.96;95175.75;5054923;28;1088;-59
2023/03/23 00:42:17;;;;;;;;;;;;;;;4.47;86.44;95174.25;5053452;28;1033;-60
2023/03/23 00:44:43;;;;;;;;;;;;;;;4.15;87.34;95176.81;5054781;28;1024;-59
2023/03/23 00:47:10;;;;;;;;;;;;;;;3.95;89.50;95173.09;5054803;28;1028;-60
2023/03/23 00:49:37;;;;;;;;;;;;;;;3.95;90.06;95176.59;5054803;28;1025;-60
2023/03/23 00:52:04;;;;;;;;;;;;;;;4.12;90.60;95169.97;5054627;28;1020;-60
2023/03/23 00:54:30;;;;;;;;;;;;;;;4.31;90.86;95166.69;5053588;28;1064;-60
2023/03/23 00:56:56;;;;;;;;;;;;;;;4.48;89.79;95168.00;5054528;28;1996;-60
2023/03/23 00:59:22;;;;;;;;;;;;;;;4.38;88.81;95167.03;5054541;28;1044;-60
2023/03/23 01:01:49;;;;;;;;;;;;;;;4.50;88.59;95172.19;5054336;28;1035;-60
2023/03/23 01:04:15;;;;;;;;;;;;;;;4.50;87.44;95166.06;5054461;28;973;-60
2023/03/23 01:06:42;;;;;;;;;;;;;;;4.33;86.85;95174.53;5053176;28;1211;-60
2023/03/23 01:09:10;;;;;;;;;;;;;;;4.30;87.95;95172.94;5054380;28;965;-60
2023/03/23 01:11:37;;;;;;;;;;;;;;;4.15;86.93;95172.34;5054411;28;1052;-60
2023/03/23 01:14:04;;;;;;;;;;;;;;;4.15;88.61;95168.88;5053043;28;957;-60
2023/03/23 01:16:30;;;;;;;;;;;;;;;4.11;86.61;95163.81;5053932;28;1989;-60
2023/03/23 01:18:56;;;;;;;;;;;;;;;3.89;86.50;95169.97;5054002;28;1041;-60
2023/03/23 01:21:22;;;;;;;;;;;;;;;3.67;88.59;95167.31;5053114;28;1089;-60
2023/03/23 01:23:48;;;;;;;;;;;;;;;3.83;88.91;95159.00;5054006;28;1551;-60
2023/03/23 01:26:16;;;;;;;;;;;;;;;3.98;88.82;95164.91;5053796;28;1093;-60
2023/03/23 01:28:43;;;;;;;;;;;;;;;3.85;89.44;95157.06;5054141;28;1016;-60
2023/03/23 01:31:13;;;;;;;;;;;;;;;3.91;88.48;95161.91;5054047;28;1056;-60
2023/03/23 01:33:40;;;;;;;;;;;;;;;4.04;88.55;95159.97;5054075;28;981;-60
2023/03/23 01:36:07;;;;;;;;;;;;;;;4.24;88.04;95163.69;5053514;28;1913;-59
2023/03/23 01:38:34;;;;;;;;;;;;;;;4.27;89.01;95165.25;5053727;28;1024;-59
2023/03/23 01:41:00;;;;;;;;;;;;;;;4.07;86.11;95162.38;5053752;28;965;-60
2023/03/23 01:43:26;;;;;;;;;;;;;;;3.75;87.39;95158.78;5053483;28;1077;-60
2023/03/23 01:45:52;;;;;;;;;;;;;;;3.75;88.68;95158.78;5053843;28;978;-60
2023/03/23 01:48:25;;;;;;;;;;;;;;;3.77;88.59;95164.78;5052529;28;1020;-60
2023/03/23 01:50:54;;;;;;;;;;;;;;;3.45;88.27;95162.81;5053405;28;1140;-60
2023/03/23 01:53:21;;;;;;;;;;;;;;;3.46;89.14;95165.34;5053340;28;1037;-60
2023/03/23 01:55:50;;;;;;;;;;;;;;;3.59;89.56;95167.91;5053451;28;1985;-60
2023/03/23 01:58:20;;;;;;;;;;;;;;;3.68;88.47;95163.69;5053314;28;1014;-60
2023/03/23 02:00:47;;;;;;;;;;;;;;;3.81;88.04;95171.50;5053820;28;985;-60
2023/03/23 02:03:15;;;;;;;;;;;;;;;3.86;87.71;95162.25;5053255;28;933;-60
2023/03/23 02:05:42;;;;;;;;;;;;;;;3.86;87.50;95169.34;5053321;28;1016;-60
2023/03/23 02:08:09;;;;;;;;;;;;;;;4.00;88.32;95176.22;5053337;28;1044;-60
2023/03/23 02:10:36;;;;;;;;;;;;;;;3.95;87.60;95179.22;5053481;28;997;-60
2023/03/23 02:13:04;;;;;;;;;;;;;;;3.86;86.84;95179.94;5053156;28;1073;-60
2023/03/23 02:15:36;;;;;;;;;;;;;;;3.78;87.22;95171.78;5053290;28;1938;-60
2023/03/23 02:18:17;;;;;;;;;;;;;;;3.79;87.34;95168.16;5053334;28;1027;-60
2023/03/23 02:21:01;;;;;;;;;;;;;;;3.85;88.71;95172.94;5053314;28;1039;-60
2023/03/23 02:23:27;;;;;;;;;;;;;;;3.71;86.90;95166.94;5053155;28;1647;-60
2023/03/23 02:25:53;;;;;;;;;;;;;;;3.39;87.20;95179.16;5053029;28;1086;-60
2023/03/23 02:28:29;;;;;;;;;;;;;;;3.17;88.83;95175.50;5053224;28;980;-60
2023/03/23 02:30:58;;;;;;;;;;;;;;;3.21;89.79;95174.31;5053048;28;1037;-60
2023/03/23 02:33:42;;;;;;;;;;;;;;;3.45;89.47;95168.97;5056890;28;1067;-60
2023/03/23 02:36:16;;;;;;;;;;;;;;;3.79;89.13;95179.56;5056914;28;1914;-60
2023/03/23 02:38:50;;;;;;;;;;;;;;;3.86;88.81;95179.94;5057433;28;1055;-60
2023/03/23 02:41:19;;;;;;;;;;;;;;;3.79;89.17;95176.91;5056930;28;1123;-60
2023/03/23 02:43:46;;;;;;;;;;;;;;;3.79;88.38;95178.72;5057072;28;1032;-60
2023/03/23 02:46:13;;;;;;;;;;;;;;;3.80;88.79;95185.72;5056851;28;1104;-60
2023/03/23 02:48:40;;;;;;;;;;;;;;;3.78;87.09;95187.63;5056604;28;1061;-60
2023/03/23 02:51:08;;;;;;;;;;;;;;;3.82;86.79;95194.38;5056939;28;1013;-60
2023/03/23 02:53:36;;;;;;;;;;;;;;;3.67;85.94;95193.75;5056643;28;1120;-60
2023/03/23 02:56:04;;;;;;;;;;;;;;;3.62;86.91;95199.38;5056947;28;2020;-60
2023/03/23 02:58:30;;;;;;;;;;;;;;;3.54;87.33;95204.41;5056873;28;989;-60
2023/03/23 03:00:58;;;;;;;;;;;;;;;3.39;87.38;95200.28;5056922;28;1087;-60
2023/03/23 03:03:29;;;;;;;;;;;;;;;3.43;87.62;95193.81;5056541;28;1010;-60
2023/03/23 03:06:31;;;;;;;;;;;;;;;3.49;87.74;95204.78;5056750;28;1001;-60
2023/03/23 03:09:07;;;;;;;;;;;;;;;3.22;87.51;95205.03;4995007;28;1174;-60
2023/03/23 03:11:36;;;;;;;;;;;;;;;2.95;89.46;95209.75;5048438;28;1176;-60
2023/03/23 03:14:04;;;;;;;;;;;;;;;3.14;89.92;95204.78;5056637;28;961;-60
2023/03/23 03:16:37;;;;;;;;;;;;;;;3.37;89.39;95205.69;5056419;28;1915;-60
2023/03/23 03:19:06;;;;;;;;;;;;;;;3.43;89.28;95215.78;5056291;28;1053;-60
2023/03/23 03:21:37;;;;;;;;;;;;;;;3.48;88.61;95213.66;5056173;28;1019;-60
2023/03/23 03:24:06;;;;;;;;;;;;;;;3.43;87.52;95214.94;5056109;28;1612;-61
2023/03/23 03:26:34;;;;;;;;;;;;;;;3.24;88.64;95203.13;5054833;28;1161;-59
2023/03/23 03:29:01;;;;;;;;;;;;;;;3.23;89.42;95205.91;5056179;28;1104;-60
2023/03/23 03:31:35;;;;;;;;;;;;;;;3.20;88.57;95203.47;5056154;28;1047;-60
2023/03/23 03:34:01;;;;;;;;;;;;;;;3.29;88.76;95200.16;5056016;28;1041;-60
2023/03/23 03:36:34;;;;;;;;;;;;;;;3.42;89.18;95215.94;5055760;28;1906;-59
2023/03/23 03:39:08;;;;;;;;;;;;;;;3.43;88.43;95214.94;5056254;28;973;-60
2023/03/23 03:41:35;;;;;;;;;;;;;;;3.53;89.35;95208.03;5055997;28;1120;-60
2023/03/23 03:44:02;;;;;;;;;;;;;;;3.50;89.50;95211.72;5055444;28;1036;-60
2023/03/23 03:46:29;;;;;;;;;;;;;;;3.41;87.61;95216.88;5055707;28;1501;-60
2023/03/23 03:48:56;;;;;;;;;;;;;;;3.01;88.75;95206.66;5056031;28;973;-60
2023/03/23 03:51:22;;;;;;;;;;;;;;;3.06;89.35;95210.63;5055456;28;1104;-60
2023/03/23 03:53:48;;;;;;;;;;;;;;;3.05;89.60;95213.38;5055979;28;981;-60
2023/03/23 03:56:15;;;;;;;;;;;;;;;3.12;89.12;95215.44;5054620;28;1918;-60
2023/03/23 03:58:42;;;;;;;;;;;;;;;3.10;89.55;95209.44;5055711;28;1039;-60
2023/03/23 04:01:12;;;;;;;;;;;;;;;3.22;88.94;95210.31;5055867;28;960;-60
2023/03/23 04:03:38;;;;;;;;;;;;;;;3.27;89.25;95216.09;5055555;28;1084;-60
2023/03/23 04:06:05;;;;;;;;;;;;;;;3.31;88.93;95212.28;5055613;28;1025;-60
2023/03/23 04:08:31;;;;;;;;;;;;;;;3.00;87.85;95231.38;5055270;28;1290;-60
2023/03/23 04:10:57;;;;;;;;;;;;;;;2.79;89.37;95232.00;5055608;28;973;-60
2023/03/23 04:13:24;;;;;;;;;;;;;;;3.01;90.45;95233.06;5055327;28;1032;-60
2023/03/23 04:15:50;;;;;;;;;;;;;;;3.24;90.54;95226.91;5055456;28;1914;-60
2023/03/23 04:18:17;;;;;;;;;;;;;;;3.43;90.50;95231.66;5055403;28;1013;-60
2023/03/23 04:20:47;;;;;;;;;;;;;;;3.51;89.56;95233.75;5054992;28;1140;-60
2023/03/23 04:23:13;;;;;;;;;;;;;;;3.42;88.64;95232.63;5054911;28;1658;-60
2023/03/23 04:25:41;;;;;;;;;;;;;;;3.32;89.76;95243.03;5055047;28;1239;-60
2023/03/23 04:28:09;;;;;;;;;;;;;;;3.34;90.44;95237.66;5055281;28;992;-60
2023/03/23 04:30:36;;;;;;;;;;;;;;;3.41;90.66;95238.84;5055251;28;1015;-60
2023/03/23 04:33:02;;;;;;;;;;;;;;;3.65;90.64;95240.63;5055202;28;961;-59
2023/03/23 04:35:29;;;;;;;;;;;;;;;3.80;90.89;95250.03;5054642;28;2027;-58
2023/03/23 04:37:55;;;;;;;;;;;;;;;3.86;90.58;95240.78;5053840;28;1020;-59
2023/03/23 04:40:22;;;;;;;;;;;;;;;4.02;90.58;95248.34;5054734;28;1112;-60
2023/03/23 04:42:50;;;;;;;;;;;;;;;4.23;90.21;95245.84;5054813;28;1037;-59
2023/03/23 04:45:21;;;;;;;;;;;;;;;4.32;90.23;95237.19;5053440;28;1016;-59
2023/03/23 04:47:57;;;;;;;;;;;;;;;4.38;90.22;95242.03;5054647;28;1044;-59
2023/03/23 04:50:26;;;;;;;;;;;;;;;4.15;88.69;95241.16;5054455;28;1049;-58
2023/03/23 04:52:53;;;;;;;;;;;;;;;3.94;90.32;95251.59;5053702;28;1044;-59
2023/03/23 04:55:20;;;;;;;;;;;;;;;3.94;91.31;95256.06;5053467;28;1914;-59
2023/03/23 04:57:46;;;;;;;;;;;;;;;4.15;91.53;95256.19;5054379;28;1021;-59
2023/03/23 05:00:14;;;;;;;;;;;;;;;4.19;92.23;95249.69;5054123;28;1084;-58
2023/03/23 05:02:40;;;;;;;;;;;;;;;4.26;89.90;95253.56;5054644;28;1039;-59
2023/03/23 05:05:07;;;;;;;;;;;;;;;4.38;90.20;95259.69;5054101;28;1908;-61
2023/03/23 05:07:33;;;;;;;;;;;;;;;4.52;90.74;95255.97;5054468;28;1055;-61
2023/03/23 05:09:59;;;;;;;;;;;;;;;4.29;91.63;95262.09;5054366;28;1035;-61
2023/03/23 05:12:26;;;;;;;;;;;;;;;4.27;92.18;95261.38;5054320;28;1029;-61
2023/03/23 05:14:52;;;;;;;;;;;;;;;4.19;92.45;95263.78;5053156;28;1021;-59
2023/03/23 05:17:18;;;;;;;;;;;;;;;4.23;94.31;95259.94;5053892;28;1906;-58
2023/03/23 05:19:47;;;;;;;;;;;;;;;4.42;94.38;95267.28;5053965;28;1027;-58
2023/03/23 05:22:16;;;;;;;;;;;;;;;4.53;93.96;95265.59;5053801;28;1053;-58
2023/03/23 05:24:43;;;;;;;;;;;;;;;4.63;94.14;95263.88;5053795;28;1581;-60
2023/03/23 05:27:09;;;;;;;;;;;;;;;4.78;94.14;95260.03;5054213;28;1194;-60
2023/03/23 05:29:36;;;;;;;;;;;;;;;4.76;94.25;95269.91;5052592;28;985;-60
2023/03/23 05:32:03;;;;;;;;;;;;;;;4.64;95.38;95270.88;5053795;28;1113;-60
2023/03/23 05:34:32;;;;;;;;;;;;;;;4.61;96.19;95276.41;5052605;28;1139;-60
2023/03/23 05:36:58;;;;;;;;;;;;;;;4.55;95.68;95284.84;5053744;28;1906;-60
2023/03/23 05:39:25;;;;;;;;;;;;;;;4.39;96.74;95291.34;5053801;28;993;-59
2023/03/23 05:41:51;;;;;;;;;;;;;;;4.57;96.74;95293.50;5052457;28;1040;-60
2023/03/23 05:44:17;;;;;;;;;;;;;;;4.87;95.41;95293.72;5053527;28;1016;-60
2023/03/23 05:46:43;;;;;;;;;;;;;;;4.94;95.24;95287.94;5053590;28;1021;-61
2023/03/23 05:49:09;;;;;;;;;;;;;;;4.96;95.03;95292.13;5053701;28;1040;-61
2023/03/23 05:51:35;;;;;;;;;;;;;;;4.96;95.95;95301.91;5053402;28;1553;-62
2023/03/23 05:54:03;;;;;;;;;;;;;;;5.09;95.47;95289.34;5053396;28;1049;-62
2023/03/23 05:56:30;;;;;;;;;;;;;;;5.08;95.55;95301.75;5053497;28;1898;-60
2023/03/23 05:58:57;;;;;;;;;;;;;;;4.97;96.77;95288.53;5053285;28;1029;-60
2023/03/23 06:01:24;;;;;;;;;;;;;;;5.06;96.39;95302.84;5053489;28;1078;-59
2023/03/23 06:03:53;;;;;;;;;;;;;;;5.25;96.91;95300.41;5053414;28;1036;-60
2023/03/23 06:06:20;;;;;;;;;;;;;;;5.38;95.99;95297.56;5053096;28;965;-60
2023/03/23 06:08:48;;;;;;;;;;;;;;;5.61;94.89;95297.47;5053424;28;1128;-62
2023/03/23 06:11:14;;;;;;;;;;;;;;;5.69;94.53;95302.97;5053356;28;1055;-62
2023/03/23 06:13:40;;;;;;;;;;;;;;;5.82;94.06;95298.38;5053461;28;1040;-62
2023/03/23 06:16:07;;;;;;;;;;;;;;;5.82;93.91;95301.03;5052134;28;1906;-62
2023/03/23 06:21:55;;;;;;;;;;;;;;;5.96;93.61;95302.53;5053192;28;801;-62
2023/03/23 06:24:21;;;;;;;;;;;;;;;5.87;92.79;95303.28;5052021;28;1702;-62
2023/03/23 06:26:48;;;;;;;;;;;;;;;5.86;92.48;95299.78;5052895;28;1082;-63
2023/03/23 06:29:16;;;;;;;;;;;;;;;5.89;92.37;95300.50;5053106;28;1088;-63
2023/03/23 06:31:45;;;;;;;;;;;;;;;6.15;92.25;95307.13;5053105;28;1040;-63
2023/03/23 06:34:11;;;;;;;;;;;;;;;6.35;91.25;95313.38;5051929;28;961;-63
2023/03/23 06:36:38;;;;;;;;;;;;;;;6.60;90.66;95304.16;5051622;28;1977;-63
2023/03/23 06:39:04;;;;;;;;;;;;;;;6.69;90.38;95305.16;5053231;28;941;-63
2023/03/23 06:41:31;;;;;;;;;;;;;;;6.81;89.14;95303.25;5053142;28;1040;-62
2023/03/23 06:43:58;;;;;;;;;;;;;;;6.91;89.43;95303.31;5053229;28;977;-61
2023/03/23 06:46:24;;;;;;;;;;;;;;;7.09;88.69;95292.84;5052839;28;1045;-63
2023/03/23 06:48:51;;;;;;;;;;;;;;;7.65;85.65;95296.72;5053000;28;929;-62
2023/03/23 06:51:17;;;;;;;;;;;;;;;7.77;85.23;95298.25;5051810;28;1035;-63
2023/03/23 06:53:44;;;;;;;;;;;;;;;7.80;84.47;95295.31;5053091;28;973;-63
2023/03/23 06:56:11;;;;;;;;;;;;;;;7.81;83.54;95308.47;5052656;28;1910;-63
2023/03/23 06:58:37;;;;;;;;;;;;;;;8.11;82.86;95314.63;5052873;28;1044;-63
2023/03/23 07:01:04;;;;;;;;;;;;;;;8.53;82.47;95319.63;5052628;28;1037;-62
2023/03/23 07:03:31;;;;;;;;;;;;;;;9.23;79.43;95315.72;5052802;28;978;-63
2023/03/23 07:05:58;;;;;;;;;;;;;;;10.10;76.33;95309.75;5052880;28;1044;-63
2023/03/23 07:08:26;;;;;;;;;;;;;;;10.78;71.94;95310.09;5052618;28;1034;-63
2023/03/23 07:10:52;;;;;;;;;;;;;;;10.90;75.10;95314.16;5051765;28;1028;-63
2023/03/23 07:13:19;;;;;;;;;;;;;;;11.16;72.08;95308.78;5052501;28;1040;-63
2023/03/23 07:15:45;;;;;;;;;;;;;;;11.63;71.97;95310.06;5052784;28;1914;-63
2023/03/23 07:18:11;;;;;;;;;;;;;;;12.08;69.25;95309.72;5052403;28;1042;-62
2023/03/23 07:20:37;;;;;;;;;;;;;;;12.19;67.24;95316.56;5056538;28;1052;-60
2023/03/23 07:23:05;;;;;;;;;;;;;;;12.10;66.69;95309.53;5054909;28;1614;-60
2023/03/23 07:25:32;;;;;;;;;;;;;;;12.22;68.03;95316.25;5056002;28;1082;-60
2023/03/23 07:28:00;;;;;;;;;;;;;;;12.52;67.83;95321.94;5056477;28;969;-60
2023/03/23 07:30:26;;;;;;;;;;;;;;;12.73;65.61;95317.88;5056141;28;1005;-60
2023/03/23 07:32:52;;;;;;;;;;;;;;;12.78;67.16;95323.56;5054770;28;1096;-60
2023/03/23 07:35:18;;;;;;;;;;;;;;;12.87;65.05;95327.91;5054643;28;1933;-59
2023/03/23 07:37:45;;;;;;;;;;;;;;;12.99;66.27;95326.53;5056254;28;993;-59
2023/03/23 07:40:14;;;;;;;;;;;;;;;12.97;66.68;95327.72;5056178;28;981;-59
2023/03/23 07:42:41;;;;;;;;;;;;;;;13.26;63.42;95321.75;5056182;28;977;-59
2023/03/23 07:45:08;;;;;;;;;;;;;;;13.55;66.03;95323.84;5054635;28;910;-60
2023/03/23 07:47:34;;;;;;;;;;;;;;;13.77;65.30;95322.25;5055602;28;1036;-60
2023/03/23 07:50:01;;;;;;;;;;;;;;;13.60;65.04;95334.06;5056047;28;1016;-59
2023/03/23 07:52:27;;;;;;;;;;;;;;;13.88;63.31;95325.53;5055582;28;1290;-59
2023/03/23 07:54:53;;;;;;;;;;;;;;;13.78;65.29;95325.75;5055773;28;1053;-61
2023/03/23 07:57:19;;;;;;;;;;;;;;;14.02;64.87;95330.16;5055555;28;1906;-62
2023/03/23 07:59:45;;;;;;;;;;;;;;;14.10;64.26;95327.41;5054523;28;1053;-62
2023/03/23 08:02:11;;;;;;;;;;;;;;;14.10;63.41;95323.88;5055398;28;1123;-60
2023/03/23 08:04:38;;;;;;;;;;;;;;;14.10;61.56;95315.81;5055733;28;1314;-60
2023/03/23 08:07:04;;;;;;;;;;;;;;;14.40;61.30;95324.84;5055573;28;1129;-61
2023/03/23 08:09:30;;;;;;;;;;;;;;;14.35;62.55;95319.97;5055293;28;1085;-61
2023/03/23 08:11:57;;;;;;;;;;;;;;;14.39;63.46;95312.41;5055634;28;1009;-61
2023/03/23 08:14:26;;;;;;;;;;;;;;;14.62;63.21;95315.91;5055209;28;1041;-61
2023/03/23 08:16:52;;;;;;;;;;;;;;;14.76;60.76;95314.28;5055142;28;1906;-61
2023/03/23 08:19:18;;;;;;;;;;;;;;;15.27;63.14;95318.13;5055388;28;1035;-60
2023/03/23 08:21:44;;;;;;;;;;;;;;;16.00;60.36;95321.75;5055219;28;1045;-60
2023/03/23 08:24:11;;;;;;;;;;;;;;;16.00;58.19;95317.19;5055050;28;1596;-60
2023/03/23 08:26:37;;;;;;;;;;;;;;;15.89;60.29;95317.69;5055029;28;1113;-61
2023/03/23 08:29:04;;;;;;;;;;;;;;;15.65;60.63;95315.28;5055382;28;1072;-63
2023/03/23 08:31:30;;;;;;;;;;;;;;;15.52;60.51;95310.59;5054694;28;922;-63
2023/03/23 08:33:56;;;;;;;;;;;;;;;15.57;60.98;95316.25;5055209;28;952;-61
2023/03/23 08:36:23;;;;;;;;;;;;;;;15.99;60.99;95314.69;5054972;28;1999;-61
2023/03/23 08:38:51;;;;;;;;;;;;;;;16.64;59.04;95306.59;5054938;28;1119;-62
2023/03/23 08:41:17;;;;;;;;;;;;;;;16.42;59.37;95308.50;5055068;28;984;-62
2023/03/23 08:43:43;;;;;;;;;;;;;;;16.77;56.48;95317.53;5054875;28;1073;-62
2023/03/23 08:46:10;;;;;;;;;;;;;;;16.82;57.28;95308.81;5054940;28;1012;-62
2023/03/23 08:48:38;;;;;;;;;;;;;;;17.17;57.54;95305.16;5054884;28;1032;-63
2023/03/23 08:51:04;;;;;;;;;;;;;;;17.27;57.60;95304.78;5054809;28;1038;-62
2023/03/23 08:53:32;;;;;;;;;;;;;;;17.67;55.88;95302.28;5054804;28;1059;-62
2023/03/23 08:56:05;;;;;;;;;;;;;;;17.64;54.52;95300.00;5054980;28;1989;-62
2023/03/23 08:58:32;;;;;;;;;;;;;;;17.61;53.43;95305.81;5053291;28;1124;-61
2023/03/23 09:00:58;;;;;;;;;;;;;;;17.33;55.39;95300.47;5053248;28;1096;-61
2023/03/23 09:03:24;;;;;;;;;;;;;;;17.25;54.93;95300.63;5054653;28;1074;-60
2023/03/23 09:05:50;;;;;;;;;;;;;;;17.22;54.91;95299.16;5053303;28;1049;-61
2023/03/23 09:08:17;;;;;;;;;;;;;;;17.81;54.34;95292.34;5054447;28;1034;-61
2023/03/23 09:10:43;;;;;;;;;;;;;;;18.02;58.25;95288.72;5054383;28;1116;-62
2023/03/23 09:13:09;;;;;;;;;;;;;;;18.21;52.82;95297.09;5054331;28;977;-62
2023/03/23 09:15:36;;;;;;;;;;;;;;;18.75;52.25;95292.56;5054375;28;1906;-61
2023/03/23 09:18:03;;;;;;;;;;;;;;;18.75;55.72;95287.97;5054390;28;1008;-62
2023/03/23 09:20:29;;;;;;;;;;;;;;;18.67;53.33;95283.59;5054358;28;1056;-61
2023/03/23 09:22:56;;;;;;;;;;;;;;;18.94;54.01;95297.16;5054028;28;1049;-60
2023/03/23 09:25:25;;;;;;;;;;;;;;;18.90;52.22;95285.91;5034210;28;1078;-61
2023/03/23 09:27:53;;;;;;;;;;;;;;;19.11;51.43;95282.13;5034174;28;1029;-61
2023/03/23 09:30:20;;;;;;;;;;;;;;;19.63;47.43;95292.22;5034001;28;1085;-62
2023/03/23 09:32:47;;;;;;;;;;;;;;;19.81;43.72;95291.56;5034358;28;1005;-62
2023/03/23 09:35:16;;;;;;;;;;;;;;;19.66;45.61;95276.34;5033958;28;1114;-61
2023/03/23 09:37:43;;;;;;;;;;;;;;;19.98;44.33;95286.50;5034004;28;1037;-61
2023/03/23 09:40:20;;;;;;;;;;;;;;;19.61;42.71;95287.00;5034253;28;1043;-61
2023/03/23 09:42:56;;;;;;;;;;;;;;;19.34;45.52;95274.59;5036522;28;2499;-61
2023/03/23 09:45:28;;;;;;;;;;;;;;;19.42;46.37;95277.88;5033661;28;1084;-60
2023/03/23 09:48:06;;;;;;;;;;;;;;;19.74;44.38;95266.34;5032801;28;1009;-60
2023/03/23 09:50:34;;;;;;;;;;;;;;;19.86;44.19;95267.31;5033715;28;1060;-60
2023/03/23 09:53:01;;;;;;;;;;;;;;;19.91;44.96;95269.41;5033623;28;1124;-60
2023/03/23 09:55:30;;;;;;;;;;;;;;;19.24;42.77;95266.91;5033579;28;1906;-61
2023/03/23 09:58:15;;;;;;;;;;;;;;;19.22;47.21;95247.31;5032662;28;961;-60
2023/03/23 10:01:01;;;;;;;;;;;;;;;19.76;44.43;95256.09;5033584;28;1100;-60
2023/03/23 10:03:33;;;;;;;;;;;;;;;19.89;44.88;95253.34;5033352;28;1103;-60
2023/03/23 10:05:59;;;;;;;;;;;;;;;19.54;40.59;95258.25;5033441;28;1116;-60
2023/03/23 10:08:27;;;;;;;;;;;;;;;19.31;44.01;95246.00;5033452;28;1224;-61
2023/03/23 10:11:02;;;;;;;;;;;;;;;19.46;44.02;95237.63;5032246;28;1037;-61
2023/03/23 10:13:37;;;;;;;;;;;;;;;19.66;44.74;95241.09;5033317;28;1493;-62
2023/03/23 10:16:05;;;;;;;;;;;;;;;20.01;43.84;95243.44;5033294;28;1979;-62
2023/03/23 10:18:31;;;;;;;;;;;;;;;19.95;45.17;95228.03;5032936;28;1037;-63
2023/03/23 10:20:58;;;;;;;;;;;;;;;20.13;44.31;95237.31;5033486;28;1032;-65
2023/03/23 10:23:40;;;;;;;;;;;;;;;20.59;44.18;95233.44;5036934;28;1620;-64
2023/03/23 10:26:19;;;;;;;;;;;;;;;20.47;41.59;95236.88;5052904;28;1082;-62
2023/03/23 10:28:52;;;;;;;;;;;;;;;20.20;43.78;95224.53;5053335;28;972;-65
2023/03/23 10:31:35;;;;;;;;;;;;;;;20.31;42.55;95231.97;5053149;28;1008;-64
2023/03/23 10:34:10;;;;;;;;;;;;;;;19.80;43.78;95224.78;5053352;28;977;-64
2023/03/23 10:36:55;;;;;;;;;;;;;;;19.93;43.02;95216.56;5053214;28;1910;-63
2023/03/23 10:39:23;;;;;;;;;;;;;;;20.13;40.99;95221.03;5053260;28;1035;-63
2023/03/23 10:41:50;;;;;;;;;;;;;;;20.20;42.40;95216.41;5053132;28;997;-64
2023/03/23 10:44:17;;;;;;;;;;;;;;;20.06;43.53;95213.78;5052786;28;1088;-63
2023/03/23 10:46:54;;;;;;;;;;;;;;;19.87;44.25;95210.13;5052898;28;1045;-64
2023/03/23 10:49:23;;;;;;;;;;;;;;;19.77;44.59;95211.63;5052742;28;1012;-64
2023/03/23 10:52:01;;;;;;;;;;;;;;;19.77;43.93;95209.78;5053014;28;997;-63
2023/03/23 10:54:31;;;;;;;;;;;;;;;19.68;44.25;95201.03;5056787;28;977;-62
2023/03/23 10:56:57;;;;;;;;;;;;;;;19.67;45.04;95199.38;5056594;28;1977;-63
2023/03/23 10:59:28;;;;;;;;;;;;;;;19.64;45.63;95194.38;5056651;28;1017;-64
2023/03/23 11:01:55;;;;;;;;;;;;;;;19.77;42.41;95211.63;5055399;28;1155;-65
2023/03/23 11:04:23;;;;;;;;;;;;;;;19.58;41.30;95207.94;5055329;28;1120;-64
2023/03/23 11:06:52;;;;;;;;;;;;;;;19.36;42.17;95192.00;5056718;28;1004;-65
2023/03/23 11:09:20;;;;;;;;;;;;;;;19.37;42.31;95190.09;5056537;28;1035;-64
2023/03/23 11:11:50;;;;;;;;;;;;;;;19.50;42.85;95185.47;5056628;28;1039;-64
2023/03/23 11:14:18;;;;;;;;;;;;;;;19.55;41.87;95184.81;5056471;28;1022;-64
2023/03/23 11:16:49;;;;;;;;;;;;;;;19.59;43.65;95182.50;5056550;28;1991;-64
2023/03/23 11:19:20;;;;;;;;;;;;;;;19.76;42.73;95175.56;5055456;28;1035;-64
2023/03/23 11:21:52;;;;;;;;;;;;;;;19.98;44.07;95175.22;5054472;28;2801;-63
2023/03/23 11:24:18;;;;;;;;;;;;;;;19.83;42.27;95170.09;5056317;28;1519;-63
2023/03/23 11:26:45;;;;;;;;;;;;;;;19.58;44.11;95169.97;5056390;28;1105;-63
2023/03/23 11:29:13;;;;;;;;;;;;;;;19.39;42.41;95172.59;5056489;28;985;-63
2023/03/23 11:31:41;;;;;;;;;;;;;;;19.23;40.73;95178.50;5055098;28;1033;-64
2023/03/23 11:34:13;;;;;;;;;;;;;;;19.16;41.36;95164.13;5055985;28;1030;-63
2023/03/23 11:36:41;;;;;;;;;;;;;;;19.02;39.76;95174.19;5055015;28;1992;-63
2023/03/23 11:39:36;;;;;;;;;;;;;;;19.07;41.83;95172.50;5056049;28;1021;-64
2023/03/23 11:42:12;;;;;;;;;;;;;;;19.22;41.59;95156.00;5019075;28;1329;-65
2023/03/23 11:44:44;;;;;;;;;;;;;;;19.28;40.70;95163.25;5056217;28;1032;-61
2023/03/23 11:47:32;;;;;;;;;;;;;;;19.22;38.95;95166.81;5055852;28;1134;-67
2023/03/23 11:50:16;;;;;;;;;;;;;;;19.11;39.76;95162.06;5055688;28;1151;-64
2023/03/23 11:53:02;;;;;;;;;;;;;;;18.95;40.17;95162.53;5055799;28;1235;-66
2023/03/23 11:55:31;;;;;;;;;;;;;;;18.84;40.69;95150.50;5055541;28;1989;-65
2023/03/23 11:58:02;;;;;;;;;;;;;;;19.03;42.35;95143.34;5054500;28;909;-68
2023/03/23 12:00:28;;;;;;;;;;;;;;;19.10;42.45;95138.72;5055784;28;972;-64
2023/03/23 12:03:13;;;;;;;;;;;;;;;18.99;42.34;95142.94;5055846;28;1021;-67
2023/03/23 12:05:45;;;;;;;;;;;;;;;18.87;40.55;95140.03;5055032;28;1028;-66
2023/03/23 12:08:17;;;;;;;;;;;;;;;18.99;40.90;95140.25;5055410;28;1104;-67
2023/03/23 12:10:52;;;;;;;;;;;;;;;19.25;42.28;95128.44;5054230;28;1025;-68
2023/03/23 12:13:19;;;;;;;;;;;;;;;19.22;42.57;95128.88;5055526;28;960;-67
2023/03/23 12:16:03;;;;;;;;;;;;;;;19.20;41.25;95143.69;5055506;28;1910;-67
2023/03/23 12:18:30;;;;;;;;;;;;;;;18.94;40.16;95139.22;5055095;28;1045;-67
2023/03/23 12:21:02;;;;;;;;;;;;;;;18.82;41.28;95139.88;5054494;28;2882;-66
2023/03/23 12:23:28;;;;;;;;;;;;;;;18.90;40.28;95136.09;5053391;28;2842;-67
2023/03/23 12:25:57;;;;;;;;;;;;;;;19.11;41.39;95137.69;5054716;28;1236;-68
2023/03/23 12:28:30;;;;;;;;;;;;;;;19.14;40.98;95125.56;5053335;28;1036;-68
2023/03/23 12:31:11;;;;;;;;;;;;;;;19.20;39.27;95135.53;5055205;28;1037;-68
2023/03/23 12:34:01;;;;;;;;;;;;;;;19.19;40.33;95126.59;5055176;28;1012;-68
2023/03/23 12:36:36;;;;;;;;;;;;;;;19.16;41.71;95120.78;5054563;28;2002;-68
2023/03/23 12:39:05;;;;;;;;;;;;;;;19.11;40.16;95126.84;5054982;28;993;-68
2023/03/23 12:41:37;;;;;;;;;;;;;;;19.06;41.37;95122.06;5054811;28;1004;-68
2023/03/23 12:44:11;;;;;;;;;;;;;;;19.09;41.29;95123.53;5054690;28;1041;-68
2023/03/23 12:46:37;;;;;;;;;;;;;;;19.07;41.37;95118.31;5054801;28;1060;-68
2023/03/23 12:49:03;;;;;;;;;;;;;;;18.99;40.30;95115.84;5053632;28;1013;-68
2023/03/23 12:51:29;;;;;;;;;;;;;;;18.97;40.92;95111.69;5054359;28;1076;-68
2023/03/23 12:54:14;;;;;;;;;;;;;;;19.04;40.20;95118.72;5053650;28;965;-68
2023/03/23 12:56:48;;;;;;;;;;;;;;;19.08;40.80;95111.00;5054634;28;1918;-68
2023/03/23 12:59:17;;;;;;;;;;;;;;;19.10;40.52;95111.63;5033461;28;2844;-68
2023/03/23 13:01:45;;;;;;;;;;;;;;;19.25;41.05;95108.63;5034658;28;1036;-68
2023/03/23 13:04:15;;;;;;;;;;;;;;;19.29;40.52;95113.44;5034524;28;1049;-65
2023/03/23 13:06:42;;;;;;;;;;;;;;;19.35;39.70;95105.44;5033500;28;1032;-65
2023/03/23 13:09:21;;;;;;;;;;;;;;;19.30;39.15;95106.13;5034462;28;1037;-64
2023/03/23 13:11:49;;;;;;;;;;;;;;;19.15;40.01;95106.41;5033354;28;997;-65
2023/03/23 13:14:26;;;;;;;;;;;;;;;19.19;38.98;95110.34;5034108;28;1018;-65
2023/03/23 13:17:07;;;;;;;;;;;;;;;18.92;39.83;95110.44;5033468;28;2000;-66